OOCL St Petersburg — PHCZ — position and weather

sailwx.info

Track history (hours):
 
Tides and Currents Weather Stations Pressure Air Temp Water Temp Dewpoint Dewpoint Depression Visibility Wind Speed Wind Dir Waves Ship Positions

OOCL St Petersburg

Last reported at 2018-Jun-25 01:35 UTC. Time now 2018-Jun-25 14:17 UTC.
Position N 39°43' W 009°37'.

MMSI: 229583784.

Date/timePositionNaut miles runAvg speedWind from/ knotsBaromVisibWave heightAir tempDewpointWater temp
2018-Jun-25 01:35N 39°43' W 009°37'112.2
2018-Jun-25 01:30N 39°42' W 009°37'812.2
2018-Jun-25 00:52N 39°35' W 009°41'412.1
2018-Jun-25 00:30N 39°31' W 009°43'612.0
2018-Jun-25 00:00N 39°25' W 009°45'612.2
2018-Jun-24 23:30N 39°19' W 009°46'612.7
2018-Jun-24 23:00N 39°13' W 009°47'612.2
2018-Jun-24 22:30N 39°07' W 009°48'612.2
2018-Jun-24 22:00N 39°01' W 009°48'612.7
2018-Jun-24 21:30N 38°54' W 009°49'612.3
2018-Jun-24 21:00N 38°48' W 009°50'611.5
2018-Jun-24 20:30N 38°42' W 009°50'510.8
2018-Jun-24 20:00N 38°38' W 009°46'612.4
2018-Jun-24 19:30N 38°37' W 009°38'611.9
2018-Jun-24 19:00N 38°37' W 009°30'611.5
2018-Jun-24 18:30N 38°37' W 009°23'611.6
2018-Jun-24 18:00N 38°41' W 009°18'510.8
2018-Jun-24 17:30N 38°41' W 009°11'4 7.8
2018-Jun-24 17:00N 38°44' W 009°06'0 0.0
2018-Jun-24 16:30N 38°44' W 009°06'0 0.0
2018-Jun-24 16:00N 38°44' W 009°06'0 0.0
2018-Jun-24 15:30N 38°44' W 009°06'0 0.0
2018-Jun-24 15:00N 38°44' W 009°06'0 0.0
2018-Jun-24 14:30N 38°44' W 009°06'0 0.0
2018-Jun-24 14:00N 38°44' W 009°06'0 0.0
2018-Jun-24 13:30N 38°44' W 009°06'0 0.0
2018-Jun-24 13:00N 38°44' W 009°06'0 0.0
2018-Jun-24 12:30N 38°44' W 009°06'0 0.0
2018-Jun-24 12:00N 38°44' W 009°06'0 0.0
2018-Jun-24 11:30N 38°44' W 009°06'0 0.0
2018-Jun-24 11:00N 38°44' W 009°06'0 0.0
2018-Jun-24 10:30N 38°44' W 009°06'0 0.0
2018-Jun-24 10:00N 38°44' W 009°06'0 0.0
2018-Jun-24 09:30N 38°44' W 009°06'0 0.0
2018-Jun-24 09:00N 38°44' W 009°06'0 0.0
2018-Jun-24 08:30N 38°44' W 009°06'0 0.0
2018-Jun-24 08:00N 38°44' W 009°06'0 0.0
2018-Jun-24 07:30N 38°44' W 009°06'0 0.0
2018-Jun-24 07:00N 38°44' W 009°06'0 0.0
2018-Jun-24 06:30N 38°44' W 009°06'0 0.0
2018-Jun-24 05:59N 38°44' W 009°06'0 0.0
2018-Jun-24 05:28N 38°44' W 009°06'0 0.0
2018-Jun-24 05:00N 38°44' W 009°06'0 0.0
2018-Jun-24 04:30N 38°44' W 009°06'0 0.0
2018-Jun-24 04:00N 38°44' W 009°06'0 0.0
2018-Jun-24 03:30N 38°44' W 009°06'0 0.0
2018-Jun-24 03:00N 38°44' W 009°06'0 0.0
2018-Jun-24 02:30N 38°44' W 009°06'0 0.0
2018-Jun-24 02:00N 38°44' W 009°06'0 0.0
2018-Jun-24 01:30N 38°44' W 009°06'0 0.0
2018-Jun-24 01:00N 38°44' W 009°06'0 0.0
2018-Jun-24 00:30N 38°44' W 009°06'0 0.0
2018-Jun-24 00:00N 38°44' W 009°06'0 0.0
2018-Jun-23 23:30N 38°44' W 009°06'0 0.0
2018-Jun-23 23:00N 38°44' W 009°06'0 0.0
2018-Jun-23 22:30N 38°44' W 009°06'0 0.0
2018-Jun-23 22:00N 38°44' W 009°06'0 0.9
2018-Jun-23 21:30N 38°43' W 009°06'5 9.5
2018-Jun-23 21:00N 38°41' W 009°12'2 4.4
2018-Jun-23 20:29N 38°41' W 009°15'4 8.4
2018-Jun-23 19:59N 38°39' W 009°20'613.8
2018-Jun-23 19:30N 38°33' W 009°21'816.4
2018-Jun-23 19:00N 38°25' W 009°16'714.7
2018-Jun-23 18:30N 38°24' W 009°07'612.7
2018-Jun-23 18:00N 38°26' W 008°59'5 9.2
2018-Jun-23 17:30N 38°30' W 008°55'2 4.9
2018-Jun-23 17:00N 38°31' W 008°52'0 0.0
2018-Jun-23 16:30N 38°31' W 008°52'0 0.0
2018-Jun-23 16:00N 38°31' W 008°52'0 0.0
2018-Jun-23 15:30N 38°31' W 008°52'0 0.0
2018-Jun-23 15:00N 38°31' W 008°52'0 0.0
2018-Jun-23 14:30N 38°31' W 008°52'0 0.0
2018-Jun-23 13:54N 38°31' W 008°52'0 0.0
2018-Jun-23 13:30N 38°31' W 008°52'0 0.0
2018-Jun-23 12:57N 38°31' W 008°52'0 0.0
2018-Jun-23 12:27N 38°31' W 008°52'0 0.0
2018-Jun-23 11:54N 38°31' W 008°52'0 0.0
2018-Jun-23 11:30N 38°31' W 008°52'0 0.0
2018-Jun-23 11:00N 38°31' W 008°52'0 0.0
2018-Jun-23 10:30N 38°31' W 008°52'0 0.0
2018-Jun-23 10:00N 38°31' W 008°52'0 0.0
2018-Jun-23 09:30N 38°31' W 008°52'0 0.0
2018-Jun-23 09:00N 38°31' W 008°52'0 0.0
2018-Jun-23 08:27N 38°31' W 008°52'0 0.0
2018-Jun-23 08:00N 38°31' W 008°52'0 0.0
2018-Jun-23 07:12N 38°31' W 008°52'0 0.0
2018-Jun-23 06:54N 38°31' W 008°52'0 0.0
2018-Jun-23 06:30N 38°31' W 008°52'0 0.0
2018-Jun-23 06:00N 38°31' W 008°52'0 0.0
2018-Jun-23 05:30N 38°31' W 008°52'0 0.0
2018-Jun-23 05:00N 38°31' W 008°52'0 0.0
2018-Jun-23 04:30N 38°31' W 008°52'0 0.0
2018-Jun-23 04:00N 38°31' W 008°52'0 0.0
2018-Jun-23 03:30N 38°31' W 008°52'0 0.0
2018-Jun-23 03:00N 38°31' W 008°52'0 0.0
2018-Jun-23 02:30N 38°31' W 008°52'0 0.0
2018-Jun-23 02:00N 38°31' W 008°52'0 0.0
2018-Jun-23 01:30N 38°31' W 008°52'0 0.0
2018-Jun-23 01:00N 38°31' W 008°52'0 0.0
2018-Jun-23 00:30N 38°31' W 008°52'0 0.0
2018-Jun-23 00:00N 38°31' W 008°52'0 0.0
2018-Jun-22 23:30N 38°31' W 008°52'0 0.0
2018-Jun-22 23:00N 38°31' W 008°52'0 0.0
2018-Jun-22 22:30N 38°31' W 008°52'0 0.0
2018-Jun-22 21:57N 38°31' W 008°52'0 0.0
2018-Jun-22 21:30N 38°31' W 008°52'0 0.0
2018-Jun-22 21:00N 38°31' W 008°52'0 0.0
2018-Jun-22 20:29N 38°31' W 008°52'0 0.0
2018-Jun-22 19:59N 38°31' W 008°52'0 0.0
2018-Jun-22 19:29N 38°31' W 008°52'0 0.0
2018-Jun-22 18:59N 38°31' W 008°52'0 0.0
2018-Jun-22 18:29N 38°31' W 008°52'0 0.0
2018-Jun-22 17:59N 38°31' W 008°52'0 0.0
2018-Jun-22 17:20N 38°31' W 008°52'0 0.0
2018-Jun-22 16:59N 38°31' W 008°52'0 0.0
2018-Jun-22 16:29N 38°31' W 008°52'0 0.0
2018-Jun-22 15:59N 38°31' W 008°52'0 0.2
2018-Jun-22 15:30N 38°31' W 008°52'4 7.3
2018-Jun-22 15:00N 38°29' W 008°56'612.5
2018-Jun-22 14:30N 38°24' W 009°02'3 5.5
2018-Jun-22 14:00N 38°23' W 009°05'1 2.2
2018-Jun-22 13:30N 38°22' W 009°06'1 1.2
2018-Jun-22 13:00N 38°22' W 009°07'0 0.2
2018-Jun-22 12:30N 38°22' W 009°07'0 0.3
2018-Jun-22 11:57N 38°22' W 009°06'0 0.4
2018-Jun-22 11:29N 38°22' W 009°06'0 0.4
2018-Jun-22 10:59N 38°23' W 009°06'0 0.4
2018-Jun-22 10:29N 38°23' W 009°06'0 0.3
2018-Jun-22 09:59N 38°23' W 009°06'0 0.4
2018-Jun-22 09:29N 38°23' W 009°06'0 0.3
2018-Jun-22 08:56N 38°23' W 009°06'0 0.3
2018-Jun-22 08:29N 38°23' W 009°05'0 0.3
2018-Jun-22 07:59N 38°23' W 009°05'0 0.6
2018-Jun-22 07:29N 38°23' W 009°05'0 0.8
2018-Jun-22 06:59N 38°23' W 009°04'0 0.8
2018-Jun-22 06:29N 38°23' W 009°04'0 0.4
2018-Jun-22 05:59N 38°23' W 009°04'4 9.0
2018-Jun-22 05:30N 38°23' W 009°10'816.8
2018-Jun-22 05:00N 38°23' W 009°20'816.9
2018-Jun-22 04:30N 38°25' W 009°31'917.2
2018-Jun-22 04:00N 38°28' W 009°41'917.9
2018-Jun-22 03:30N 38°31' W 009°52'1018.0
2018-Jun-22 02:59N 38°35' W 010°03'817.2
2018-Jun-22 02:30N 38°43' W 010°05'917.7
2018-Jun-22 02:00N 38°52' W 010°05'917.8
2018-Jun-22 01:30N 39°00' W 010°02'917.7
2018-Jun-22 01:00N 39°09' W 009°58'918.1
2018-Jun-22 00:30N 39°17' W 009°54'917.9
2018-Jun-22 00:00N 39°26' W 009°50'917.7
2018-Jun-21 23:30N 39°34' W 009°46'918.1
2018-Jun-21 22:59N 39°42' W 009°41'8817.8
2018-Jun-21 18:04N 41°00' W 008°49'117.5
2018-Jun-21 18:00N 41°01' W 008°48'816.8
2018-Jun-21 17:30N 41°09' W 008°43'3 5.8
2018-Jun-21 17:00N 41°12' W 008°41'0 0.0
2018-Jun-21 16:30N 41°12' W 008°41'0 0.0
2018-Jun-21 16:00N 41°12' W 008°41'0 0.0
2018-Jun-21 15:30N 41°12' W 008°41'0 0.0
2018-Jun-21 15:00N 41°12' W 008°41'0 0.0
2018-Jun-21 14:30N 41°12' W 008°41'0 0.0
2018-Jun-21 14:00N 41°12' W 008°41'0 0.0
2018-Jun-21 13:30N 41°12' W 008°41'0 0.0
2018-Jun-21 13:00N 41°12' W 008°41'0 0.0
2018-Jun-21 12:30N 41°12' W 008°41'0 0.0
2018-Jun-21 12:00N 41°12' W 008°41'0 0.0
2018-Jun-21 11:30N 41°12' W 008°41'0 0.0
2018-Jun-21 11:00N 41°12' W 008°41'0 0.0
2018-Jun-21 10:30N 41°12' W 008°41'0 0.0
2018-Jun-21 10:00N 41°12' W 008°41'0 0.0
2018-Jun-21 09:30N 41°12' W 008°41'0 0.0
2018-Jun-21 09:00N 41°12' W 008°41'0 0.0
2018-Jun-21 08:30N 41°12' W 008°41'0 0.0
2018-Jun-21 08:00N 41°12' W 008°41'0 0.0
2018-Jun-21 07:30N 41°12' W 008°41'0 0.0
2018-Jun-21 07:00N 41°12' W 008°41'0 0.0
2018-Jun-21 06:30N 41°12' W 008°41'0 0.0
2018-Jun-21 06:00N 41°12' W 008°41'0 0.0
2018-Jun-21 05:31N 41°12' W 008°41'1 2.4
2018-Jun-21 05:01N 41°11' W 008°42'2 4.3
2018-Jun-21 04:30N 41°10' W 008°45'510.4
2018-Jun-21 04:00N 41°15' W 008°49'45812.0
2018-Jun-19 13:51N 48°37' W 005°59'1517.8
2018-Jun-19 13:00N 48°50' W 005°48'916.4
2018-Jun-19 12:26N 48°56' W 005°37'1016.3
2018-Jun-19 11:49N 49°01' W 005°24'616.1
2018-Jun-19 11:26N 49°04' W 005°15'2415.3
2018-Jun-19 09:51N 49°16' W 004°43'5115.4
2018-Jun-19 06:32N 49°42' W 003°36'217.3
2018-Jun-19 06:27N 49°43' W 003°34'817.6
2018-Jun-19 06:00N 49°47' W 003°24'918.1
2018-Jun-19 05:30N 49°52' W 003°12'918.6
2018-Jun-19 05:00N 49°56' W 002°59'918.6
2018-Jun-19 04:30N 50°00' W 002°46'918.4
2018-Jun-19 04:01N 50°03' W 002°33'9914.9
2018-Jun-18 21:23N 50°32' W 000°05'716.8
2018-Jun-18 20:57N 50°33' E 000°06'817.3
2018-Jun-18 20:31N 50°36' E 000°18'917.7
2018-Jun-18 20:00N 50°38' E 000°31'917.4
2018-Jun-18 19:31N 50°43' E 000°43'816.7
2018-Jun-18 19:01N 50°47' E 000°53'816.2
2018-Jun-18 18:30N 50°52' E 001°04'815.6
2018-Jun-18 18:00N 50°57' E 001°14'714.7
2018-Jun-18 17:31N 51°02' E 001°23'713.9
2018-Jun-18 17:01N 51°06' E 001°31'713.1
2018-Jun-18 16:30N 51°10' E 001°40'713.2
2018-Jun-18 16:01N 51°15' E 001°47'713.7
2018-Jun-18 15:30N 51°21' E 001°51'714.5
2018-Jun-18 15:00N 51°26' E 001°59'815.5
2018-Jun-18 14:30N 51°32' E 002°07'816.2
2018-Jun-18 14:00N 51°38' E 002°16'917.3
2018-Jun-18 13:30N 51°44' E 002°25'2917.3
2018-Jun-18 11:49N 52°02' E 003°03'717.3
2018-Jun-18 11:25N 52°02' E 003°14'717.0
2018-Jun-18 11:00N 52°03' E 003°26'816.7
2018-Jun-18 10:30N 52°03' E 003°39'816.4
2018-Jun-18 10:00N 52°03' E 003°53'611.4
2018-Jun-18 09:30N 52°00' E 004°01'714.2
2018-Jun-18 09:00N 51°57' E 004°11'612.3
2018-Jun-18 08:30N 51°54' E 004°19'4 7.5
2018-Jun-18 08:00N 51°53' E 004°25'0 0.3
2018-Jun-18 07:27N 51°53' E 004°25'0 0.0
2018-Jun-18 06:59N 51°53' E 004°25'0 0.0
2018-Jun-18 06:29N 51°53' E 004°25'0 0.0
2018-Jun-18 05:59N 51°53' E 004°25'0 0.8
2018-Jun-18 05:29N 51°53' E 004°25'0 0.6
2018-Jun-18 05:00N 51°53' E 004°25'0 0.4
2018-Jun-18 04:30N 51°53' E 004°25'0 0.0
2018-Jun-18 04:00N 51°53' E 004°26'0 0.0
2018-Jun-18 03:30N 51°53' E 004°25'0 0.0
2018-Jun-18 02:58N 51°53' E 004°26'1 1.1
2018-Jun-18 02:30N 51°53' E 004°25'1 2.5
2018-Jun-18 02:00N 51°54' E 004°23'4 7.2
2018-Jun-18 01:30N 51°54' E 004°17'510.1
2018-Jun-18 01:00N 51°57' E 004°11'4 7.0
2018-Jun-18 00:30N 51°58' E 004°05'2 3.5
2018-Jun-18 00:00N 51°58' E 004°03'0 0.0
2018-Jun-17 23:30N 51°58' E 004°03'0 0.0
2018-Jun-17 23:00N 51°58' E 004°03'0 0.0
2018-Jun-17 22:30N 51°58' E 004°03'0 0.0
2018-Jun-17 22:00N 51°58' E 004°03'0 0.0
2018-Jun-17 21:30N 51°58' E 004°03'0 0.0
2018-Jun-17 21:00N 51°58' E 004°03'0 0.0
2018-Jun-17 20:30N 51°58' E 004°03'0 0.0
2018-Jun-17 20:00N 51°58' E 004°03'0 0.0
2018-Jun-17 19:30N 51°58' E 004°03'0 0.0
2018-Jun-17 19:00N 51°58' E 004°03'0 0.0
2018-Jun-17 18:30N 51°58' E 004°03'0 0.0
2018-Jun-17 18:00N 51°58' E 004°03'0 0.4
2018-Jun-17 17:30N 51°58' E 004°03'1 2.8
2018-Jun-17 17:00N 51°57' E 004°04'0 0.0
2018-Jun-17 16:30N 51°57' E 004°04'0 0.0
2018-Jun-17 16:00N 51°57' E 004°04'0 0.0
2018-Jun-17 15:30N 51°57' E 004°04'0 0.0
2018-Jun-17 15:00N 51°57' E 004°04'0 0.0
2018-Jun-17 14:30N 51°57' E 004°04'0 0.1
2018-Jun-17 14:01N 51°57' E 004°04'0 0.1
2018-Jun-17 13:30N 51°57' E 004°04'0 0.0
2018-Jun-17 12:59N 51°57' E 004°04'0 0.0
2018-Jun-17 12:29N 51°57' E 004°04'0 0.0
2018-Jun-17 11:59N 51°57' E 004°04'0 0.0
2018-Jun-17 11:29N 51°57' E 004°04'1 1.2
2018-Jun-17 11:00N 51°57' E 004°05'3 5.3
2018-Jun-17 10:30N 51°58' E 004°09'612.4
2018-Jun-17 10:00N 51°54' E 004°17'5 9.8
2018-Jun-17 09:30N 51°54' E 004°25'1 1.8
2018-Jun-17 08:59N 51°54' E 004°26'0 0.0
2018-Jun-17 08:28N 51°54' E 004°26'0 0.0
2018-Jun-17 07:58N 51°54' E 004°26'0 0.0
2018-Jun-17 07:29N 51°54' E 004°26'0 0.0
2018-Jun-17 06:58N 51°54' E 004°26'0 0.0
2018-Jun-17 06:28N 51°54' E 004°26'0 0.0
2018-Jun-17 05:58N 51°54' E 004°26'0 0.0
2018-Jun-17 05:28N 51°54' E 004°26'0 0.0
2018-Jun-17 04:56N 51°54' E 004°26'0 0.0
2018-Jun-17 04:28N 51°54' E 004°26'0 0.0
2018-Jun-17 03:59N 51°54' E 004°26'0 0.0
2018-Jun-17 03:28N 51°54' E 004°26'0 0.0
2018-Jun-17 02:59N 51°54' E 004°26'0 0.0
2018-Jun-17 02:29N 51°54' E 004°26'0 0.0
2018-Jun-17 01:56N 51°54' E 004°26'0 0.0
2018-Jun-17 01:29N 51°54' E 004°26'1 3.0
2018-Jun-17 01:00N 51°54' E 004°24'1 2.5
2018-Jun-17 00:28N 51°53' E 004°25'0 0.1
2018-Jun-16 23:59N 51°53' E 004°25'0 0.0
2018-Jun-16 23:29N 51°53' E 004°25'0 0.0
2018-Jun-16 22:58N 51°53' E 004°25'0 0.0
2018-Jun-16 22:29N 51°53' E 004°25'0 0.0
2018-Jun-16 21:59N 51°53' E 004°25'0 0.0
2018-Jun-16 21:29N 51°53' E 004°25'0 0.0
2018-Jun-16 20:56N 51°53' E 004°25'0 0.0
2018-Jun-16 20:28N 51°53' E 004°25'0 0.0
2018-Jun-16 19:58N 51°53' E 004°25'0 0.0
2018-Jun-16 19:28N 51°53' E 004°25'0 0.0
2018-Jun-16 19:00N 51°53' E 004°25'0 0.0
2018-Jun-16 18:30N 51°53' E 004°25'0 0.0
2018-Jun-16 17:58N 51°53' E 004°25'0 0.0
2018-Jun-16 17:28N 51°53' E 004°25'0 0.0
2018-Jun-16 16:58N 51°53' E 004°25'0 0.0
2018-Jun-16 16:28N 51°53' E 004°25'0 0.0
2018-Jun-16 15:58N 51°53' E 004°25'0 0.0
2018-Jun-16 15:28N 51°53' E 004°25'0 0.0
2018-Jun-16 14:58N 51°53' E 004°25'0 0.0
2018-Jun-16 14:30N 51°53' E 004°25'0 0.0
2018-Jun-16 13:57N 51°53' E 004°25'0 0.0
2018-Jun-16 13:28N 51°53' E 004°25'0 0.0
2018-Jun-16 12:58N 51°53' E 004°25'0 0.0
2018-Jun-16 12:30N 51°53' E 004°25'0 0.0
2018-Jun-16 11:58N 51°53' E 004°25'0 0.0
2018-Jun-16 11:27N 51°53' E 004°25'0 0.0
2018-Jun-16 10:58N 51°53' E 004°25'0 0.2
2018-Jun-16 10:28N 51°53' E 004°25'1 1.2
2018-Jun-16 10:00N 51°53' E 004°24'0 0.0
2018-Jun-16 09:30N 51°53' E 004°24'0 0.0
2018-Jun-16 09:00N 51°53' E 004°24'0 0.0
2018-Jun-16 08:29N 51°53' E 004°24'0 0.0
2018-Jun-16 07:59N 51°53' E 004°24'0 0.0
2018-Jun-16 07:29N 51°53' E 004°24'0 0.0
2018-Jun-16 07:00N 51°53' E 004°24'0 0.0
2018-Jun-16 06:30N 51°53' E 004°24'0 0.0
2018-Jun-16 06:00N 51°53' E 004°24'0 0.0
2018-Jun-16 05:00N 51°53' E 004°24'0 0.0
2018-Jun-16 04:30N 51°53' E 004°24'0 0.0
2018-Jun-16 03:59N 51°53' E 004°24'0 0.0
2018-Jun-16 03:26N 51°53' E 004°24'0 0.0
2018-Jun-16 03:01N 51°53' E 004°24'2 4.7
2018-Jun-16 02:31N 51°54' E 004°21'3 6.9
2018-Jun-16 02:00N 51°51' E 004°23'611.1
2018-Jun-16 01:31N 51°50' E 004°32'4 8.1
2018-Jun-16 01:00N 51°48' E 004°37'5 9.4
2018-Jun-16 00:31N 51°43' E 004°37'2 4.4
2018-Jun-16 00:01N 51°41' E 004°36'0 0.2
2018-Jun-15 23:30N 51°41' E 004°36'0 0.0
2018-Jun-15 23:01N 51°41' E 004°36'0 0.0
2018-Jun-15 22:30N 51°41' E 004°36'0 0.0
2018-Jun-15 22:01N 51°41' E 004°36'0 0.0
2018-Jun-15 21:30N 51°41' E 004°36'0 0.0
2018-Jun-15 21:01N 51°41' E 004°36'0 0.0
2018-Jun-15 20:31N 51°41' E 004°36'0 0.0
2018-Jun-15 20:00N 51°41' E 004°36'0 0.0
2018-Jun-15 19:30N 51°41' E 004°36'0 0.0
2018-Jun-15 19:00N 51°41' E 004°36'0 0.0
2018-Jun-15 18:30N 51°41' E 004°36'0 0.0
2018-Jun-15 18:00N 51°41' E 004°36'0 0.0
2018-Jun-15 17:30N 51°41' E 004°36'0 0.0
2018-Jun-15 17:00N 51°41' E 004°36'0 0.0
2018-Jun-15 16:30N 51°41' E 004°36'0 0.0
2018-Jun-15 16:00N 51°41' E 004°36'0 0.0
2018-Jun-15 15:31N 51°41' E 004°36'0 0.0
2018-Jun-15 15:01N 51°41' E 004°36'0 0.0
2018-Jun-15 14:30N 51°41' E 004°36'0 0.0
2018-Jun-15 14:00N 51°41' E 004°36'0 0.0
2018-Jun-15 13:30N 51°41' E 004°36'0 0.0
2018-Jun-15 13:00N 51°41' E 004°36'0 0.0
2018-Jun-15 12:30N 51°41' E 004°36'0 0.0
2018-Jun-15 12:00N 51°41' E 004°36'2 4.1
2018-Jun-15 11:31N 51°43' E 004°37'4 7.6
2018-Jun-15 11:00N 51°47' E 004°38'3 6.9
2018-Jun-15 10:31N 51°49' E 004°34'3 7.0
2018-Jun-15 10:01N 51°50' E 004°28'4 8.8
2018-Jun-15 09:30N 51°51' E 004°21'4 7.5
2018-Jun-15 09:01N 51°54' E 004°17'510.7
2018-Jun-15 08:30N 51°57' E 004°10'510.3
2018-Jun-15 08:01N 51°59' E 004°03'715.0
2018-Jun-15 07:30N 52°00' E 003°51'713.7
2018-Jun-15 07:00N 51°59' E 003°40'816.7
2018-Jun-15 06:30N 51°56' E 003°27'816.5
2018-Jun-15 06:00N 51°53' E 003°15'917.0
2018-Jun-15 05:29N 51°52' E 003°01'817.1
2018-Jun-15 05:00N 51°51' E 002°47'917.4
2018-Jun-15 04:30N 51°50' E 002°33'817.3
2018-Jun-15 04:01N 51°48' E 002°20'1019.1
2018-Jun-15 03:31N 51°42' E 002°08'1019.1
2018-Jun-15 03:01N 51°36' E 001°57'918.8
2018-Jun-15 02:31N 51°31' E 001°43'917.2
2018-Jun-15 02:00N 51°26' E 001°32'  
Track history (hours):
 
Tides and Currents Weather Stations Pressure Air Temp Water Temp Dewpoint Dewpoint Depression Visibility Wind Speed Wind Dir Waves Ship Positions

OOCL St Petersburg

Last reported at 2018-Jun-25 01:35 UTC. Time now 2018-Jun-25 14:17 UTC.
Position N 39°43' W 009°37'.

MMSI: 229583784.

Date/timePositionNaut miles runAvg speedWind from/ knotsBaromVisibWave heightAir tempDewpointWater temp
2018-Jun-25 01:35N 39°43' W 009°37'112.2
2018-Jun-25 01:30N 39°42' W 009°37'812.2
2018-Jun-25 00:52N 39°35' W 009°41'412.1
2018-Jun-25 00:30N 39°31' W 009°43'612.0
2018-Jun-25 00:00N 39°25' W 009°45'612.2
2018-Jun-24 23:30N 39°19' W 009°46'612.7
2018-Jun-24 23:00N 39°13' W 009°47'612.2
2018-Jun-24 22:30N 39°07' W 009°48'612.2
2018-Jun-24 22:00N 39°01' W 009°48'612.7
2018-Jun-24 21:30N 38°54' W 009°49'612.3
2018-Jun-24 21:00N 38°48' W 009°50'611.5
2018-Jun-24 20:30N 38°42' W 009°50'510.8
2018-Jun-24 20:00N 38°38' W 009°46'612.4
2018-Jun-24 19:30N 38°37' W 009°38'611.9
2018-Jun-24 19:00N 38°37' W 009°30'611.5
2018-Jun-24 18:30N 38°37' W 009°23'611.6
2018-Jun-24 18:00N 38°41' W 009°18'510.8
2018-Jun-24 17:30N 38°41' W 009°11'4 7.8
2018-Jun-24 17:00N 38°44' W 009°06'0 0.0
2018-Jun-24 16:30N 38°44' W 009°06'0 0.0
2018-Jun-24 16:00N 38°44' W 009°06'0 0.0
2018-Jun-24 15:30N 38°44' W 009°06'0 0.0
2018-Jun-24 15:00N 38°44' W 009°06'0 0.0
2018-Jun-24 14:30N 38°44' W 009°06'0 0.0
2018-Jun-24 14:00N 38°44' W 009°06'0 0.0
2018-Jun-24 13:30N 38°44' W 009°06'0 0.0
2018-Jun-24 13:00N 38°44' W 009°06'0 0.0
2018-Jun-24 12:30N 38°44' W 009°06'0 0.0
2018-Jun-24 12:00N 38°44' W 009°06'0 0.0
2018-Jun-24 11:30N 38°44' W 009°06'0 0.0
2018-Jun-24 11:00N 38°44' W 009°06'0 0.0
2018-Jun-24 10:30N 38°44' W 009°06'0 0.0
2018-Jun-24 10:00N 38°44' W 009°06'0 0.0
2018-Jun-24 09:30N 38°44' W 009°06'0 0.0
2018-Jun-24 09:00N 38°44' W 009°06'0 0.0
2018-Jun-24 08:30N 38°44' W 009°06'0 0.0
2018-Jun-24 08:00N 38°44' W 009°06'0 0.0
2018-Jun-24 07:30N 38°44' W 009°06'0 0.0
2018-Jun-24 07:00N 38°44' W 009°06'0 0.0
2018-Jun-24 06:30N 38°44' W 009°06'0 0.0
2018-Jun-24 05:59N 38°44' W 009°06'0 0.0
2018-Jun-24 05:28N 38°44' W 009°06'0 0.0
2018-Jun-24 05:00N 38°44' W 009°06'0 0.0
2018-Jun-24 04:30N 38°44' W 009°06'0 0.0
2018-Jun-24 04:00N 38°44' W 009°06'0 0.0
2018-Jun-24 03:30N 38°44' W 009°06'0 0.0
2018-Jun-24 03:00N 38°44' W 009°06'0 0.0
2018-Jun-24 02:30N 38°44' W 009°06'0 0.0
2018-Jun-24 02:00N 38°44' W 009°06'0 0.0
2018-Jun-24 01:30N 38°44' W 009°06'0 0.0
2018-Jun-24 01:00N 38°44' W 009°06'0 0.0
2018-Jun-24 00:30N 38°44' W 009°06'0 0.0
2018-Jun-24 00:00N 38°44' W 009°06'0 0.0
2018-Jun-23 23:30N 38°44' W 009°06'0 0.0
2018-Jun-23 23:00N 38°44' W 009°06'0 0.0
2018-Jun-23 22:30N 38°44' W 009°06'0 0.0
2018-Jun-23 22:00N 38°44' W 009°06'0 0.9
2018-Jun-23 21:30N 38°43' W 009°06'5 9.5
2018-Jun-23 21:00N 38°41' W 009°12'2 4.4
2018-Jun-23 20:29N 38°41' W 009°15'4 8.4
2018-Jun-23 19:59N 38°39' W 009°20'613.8
2018-Jun-23 19:30N 38°33' W 009°21'816.4
2018-Jun-23 19:00N 38°25' W 009°16'714.7
2018-Jun-23 18:30N 38°24' W 009°07'612.7
2018-Jun-23 18:00N 38°26' W 008°59'5 9.2
2018-Jun-23 17:30N 38°30' W 008°55'2 4.9
2018-Jun-23 17:00N 38°31' W 008°52'0 0.0
2018-Jun-23 16:30N 38°31' W 008°52'0 0.0
2018-Jun-23 16:00N 38°31' W 008°52'0 0.0
2018-Jun-23 15:30N 38°31' W 008°52'0 0.0
2018-Jun-23 15:00N 38°31' W 008°52'0 0.0
2018-Jun-23 14:30N 38°31' W 008°52'0 0.0
2018-Jun-23 13:54N 38°31' W 008°52'0 0.0
2018-Jun-23 13:30N 38°31' W 008°52'0 0.0
2018-Jun-23 12:57N 38°31' W 008°52'0 0.0
2018-Jun-23 12:27N 38°31' W 008°52'0 0.0
2018-Jun-23 11:54N 38°31' W 008°52'0 0.0
2018-Jun-23 11:30N 38°31' W 008°52'0 0.0
2018-Jun-23 11:00N 38°31' W 008°52'0 0.0
2018-Jun-23 10:30N 38°31' W 008°52'0 0.0
2018-Jun-23 10:00N 38°31' W 008°52'0 0.0
2018-Jun-23 09:30N 38°31' W 008°52'0 0.0
2018-Jun-23 09:00N 38°31' W 008°52'0 0.0
2018-Jun-23 08:27N 38°31' W 008°52'0 0.0
2018-Jun-23 08:00N 38°31' W 008°52'0 0.0
2018-Jun-23 07:12N 38°31' W 008°52'0 0.0
2018-Jun-23 06:54N 38°31' W 008°52'0 0.0
2018-Jun-23 06:30N 38°31' W 008°52'0 0.0
2018-Jun-23 06:00N 38°31' W 008°52'0 0.0
2018-Jun-23 05:30N 38°31' W 008°52'0 0.0
2018-Jun-23 05:00N 38°31' W 008°52'0 0.0
2018-Jun-23 04:30N 38°31' W 008°52'0 0.0
2018-Jun-23 04:00N 38°31' W 008°52'0 0.0
2018-Jun-23 03:30N 38°31' W 008°52'0 0.0
2018-Jun-23 03:00N 38°31' W 008°52'0 0.0
2018-Jun-23 02:30N 38°31' W 008°52'0 0.0
2018-Jun-23 02:00N 38°31' W 008°52'0 0.0
2018-Jun-23 01:30N 38°31' W 008°52'0 0.0
2018-Jun-23 01:00N 38°31' W 008°52'0 0.0
2018-Jun-23 00:30N 38°31' W 008°52'0 0.0
2018-Jun-23 00:00N 38°31' W 008°52'0 0.0
2018-Jun-22 23:30N 38°31' W 008°52'0 0.0
2018-Jun-22 23:00N 38°31' W 008°52'0 0.0
2018-Jun-22 22:30N 38°31' W 008°52'0 0.0
2018-Jun-22 21:57N 38°31' W 008°52'0 0.0
2018-Jun-22 21:30N 38°31' W 008°52'0 0.0
2018-Jun-22 21:00N 38°31' W 008°52'0 0.0
2018-Jun-22 20:29N 38°31' W 008°52'0 0.0
2018-Jun-22 19:59N 38°31' W 008°52'0 0.0
2018-Jun-22 19:29N 38°31' W 008°52'0 0.0
2018-Jun-22 18:59N 38°31' W 008°52'0 0.0
2018-Jun-22 18:29N 38°31' W 008°52'0 0.0
2018-Jun-22 17:59N 38°31' W 008°52'0 0.0
2018-Jun-22 17:20N 38°31' W 008°52'0 0.0
2018-Jun-22 16:59N 38°31' W 008°52'0 0.0
2018-Jun-22 16:29N 38°31' W 008°52'0 0.0
2018-Jun-22 15:59N 38°31' W 008°52'0 0.2
2018-Jun-22 15:30N 38°31' W 008°52'4 7.3
2018-Jun-22 15:00N 38°29' W 008°56'612.5
2018-Jun-22 14:30N 38°24' W 009°02'3 5.5
2018-Jun-22 14:00N 38°23' W 009°05'1 2.2
2018-Jun-22 13:30N 38°22' W 009°06'1 1.2
2018-Jun-22 13:00N 38°22' W 009°07'0 0.2
2018-Jun-22 12:30N 38°22' W 009°07'0 0.3
2018-Jun-22 11:57N 38°22' W 009°06'0 0.4
2018-Jun-22 11:29N 38°22' W 009°06'0 0.4
2018-Jun-22 10:59N 38°23' W 009°06'0 0.4
2018-Jun-22 10:29N 38°23' W 009°06'0 0.3
2018-Jun-22 09:59N 38°23' W 009°06'0 0.4
2018-Jun-22 09:29N 38°23' W 009°06'0 0.3
2018-Jun-22 08:56N 38°23' W 009°06'0 0.3
2018-Jun-22 08:29N 38°23' W 009°05'0 0.3
2018-Jun-22 07:59N 38°23' W 009°05'0 0.6
2018-Jun-22 07:29N 38°23' W 009°05'0 0.8
2018-Jun-22 06:59N 38°23' W 009°04'0 0.8
2018-Jun-22 06:29N 38°23' W 009°04'0 0.4
2018-Jun-22 05:59N 38°23' W 009°04'4 9.0
2018-Jun-22 05:30N 38°23' W 009°10'816.8
2018-Jun-22 05:00N 38°23' W 009°20'816.9
2018-Jun-22 04:30N 38°25' W 009°31'917.2
2018-Jun-22 04:00N 38°28' W 009°41'917.9
2018-Jun-22 03:30N 38°31' W 009°52'1018.0
2018-Jun-22 02:59N 38°35' W 010°03'817.2
2018-Jun-22 02:30N 38°43' W 010°05'917.7
2018-Jun-22 02:00N 38°52' W 010°05'917.8
2018-Jun-22 01:30N 39°00' W 010°02'917.7
2018-Jun-22 01:00N 39°09' W 009°58'918.1
2018-Jun-22 00:30N 39°17' W 009°54'917.9
2018-Jun-22 00:00N 39°26' W 009°50'917.7
2018-Jun-21 23:30N 39°34' W 009°46'918.1
2018-Jun-21 22:59N 39°42' W 009°41'8817.8
2018-Jun-21 18:04N 41°00' W 008°49'117.5
2018-Jun-21 18:00N 41°01' W 008°48'816.8
2018-Jun-21 17:30N 41°09' W 008°43'3 5.8
2018-Jun-21 17:00N 41°12' W 008°41'0 0.0
2018-Jun-21 16:30N 41°12' W 008°41'0 0.0
2018-Jun-21 16:00N 41°12' W 008°41'0 0.0
2018-Jun-21 15:30N 41°12' W 008°41'0 0.0
2018-Jun-21 15:00N 41°12' W 008°41'0 0.0
2018-Jun-21 14:30N 41°12' W 008°41'0 0.0
2018-Jun-21 14:00N 41°12' W 008°41'0 0.0
2018-Jun-21 13:30N 41°12' W 008°41'0 0.0
2018-Jun-21 13:00N 41°12' W 008°41'0 0.0
2018-Jun-21 12:30N 41°12' W 008°41'0 0.0
2018-Jun-21 12:00N 41°12' W 008°41'0 0.0
2018-Jun-21 11:30N 41°12' W 008°41'0 0.0
2018-Jun-21 11:00N 41°12' W 008°41'0 0.0
2018-Jun-21 10:30N 41°12' W 008°41'0 0.0
2018-Jun-21 10:00N 41°12' W 008°41'0 0.0
2018-Jun-21 09:30N 41°12' W 008°41'0 0.0
2018-Jun-21 09:00N 41°12' W 008°41'0 0.0
2018-Jun-21 08:30N 41°12' W 008°41'0 0.0
2018-Jun-21 08:00N 41°12' W 008°41'0 0.0
2018-Jun-21 07:30N 41°12' W 008°41'0 0.0
2018-Jun-21 07:00N 41°12' W 008°41'0 0.0
2018-Jun-21 06:30N 41°12' W 008°41'0 0.0
2018-Jun-21 06:00N 41°12' W 008°41'0 0.0
2018-Jun-21 05:31N 41°12' W 008°41'1 2.4
2018-Jun-21 05:01N 41°11' W 008°42'2 4.3
2018-Jun-21 04:30N 41°10' W 008°45'510.4
2018-Jun-21 04:00N 41°15' W 008°49'45812.0
2018-Jun-19 13:51N 48°37' W 005°59'1517.8
2018-Jun-19 13:00N 48°50' W 005°48'916.4
2018-Jun-19 12:26N 48°56' W 005°37'1016.3
2018-Jun-19 11:49N 49°01' W 005°24'616.1
2018-Jun-19 11:26N 49°04' W 005°15'2415.3
2018-Jun-19 09:51N 49°16' W 004°43'5115.4
2018-Jun-19 06:32N 49°42' W 003°36'217.3
2018-Jun-19 06:27N 49°43' W 003°34'817.6
2018-Jun-19 06:00N 49°47' W 003°24'918.1
2018-Jun-19 05:30N 49°52' W 003°12'918.6
2018-Jun-19 05:00N 49°56' W 002°59'918.6
2018-Jun-19 04:30N 50°00' W 002°46'918.4
2018-Jun-19 04:01N 50°03' W 002°33'9914.9
2018-Jun-18 21:23N 50°32' W 000°05'716.8
2018-Jun-18 20:57N 50°33' E 000°06'817.3
2018-Jun-18 20:31N 50°36' E 000°18'917.7
2018-Jun-18 20:00N 50°38' E 000°31'917.4
2018-Jun-18 19:31N 50°43' E 000°43'816.7
2018-Jun-18 19:01N 50°47' E 000°53'816.2
2018-Jun-18 18:30N 50°52' E 001°04'815.6
2018-Jun-18 18:00N 50°57' E 001°14'714.7
2018-Jun-18 17:31N 51°02' E 001°23'713.9
2018-Jun-18 17:01N 51°06' E 001°31'713.1
2018-Jun-18 16:30N 51°10' E 001°40'713.2
2018-Jun-18 16:01N 51°15' E 001°47'713.7
2018-Jun-18 15:30N 51°21' E 001°51'714.5
2018-Jun-18 15:00N 51°26' E 001°59'815.5
2018-Jun-18 14:30N 51°32' E 002°07'816.2
2018-Jun-18 14:00N 51°38' E 002°16'917.3
2018-Jun-18 13:30N 51°44' E 002°25'2917.3
2018-Jun-18 11:49N 52°02' E 003°03'717.3
2018-Jun-18 11:25N 52°02' E 003°14'717.0
2018-Jun-18 11:00N 52°03' E 003°26'816.7
2018-Jun-18 10:30N 52°03' E 003°39'816.4
2018-Jun-18 10:00N 52°03' E 003°53'611.4
2018-Jun-18 09:30N 52°00' E 004°01'714.2
2018-Jun-18 09:00N 51°57' E 004°11'612.3
2018-Jun-18 08:30N 51°54' E 004°19'4 7.5
2018-Jun-18 08:00N 51°53' E 004°25'0 0.3
2018-Jun-18 07:27N 51°53' E 004°25'0 0.0
2018-Jun-18 06:59N 51°53' E 004°25'0 0.0
2018-Jun-18 06:29N 51°53' E 004°25'0 0.0
2018-Jun-18 05:59N 51°53' E 004°25'0 0.8
2018-Jun-18 05:29N 51°53' E 004°25'0 0.6
2018-Jun-18 05:00N 51°53' E 004°25'0 0.4
2018-Jun-18 04:30N 51°53' E 004°25'0 0.0
2018-Jun-18 04:00N 51°53' E 004°26'0 0.0
2018-Jun-18 03:30N 51°53' E 004°25'0 0.0
2018-Jun-18 02:58N 51°53' E 004°26'1 1.1
2018-Jun-18 02:30N 51°53' E 004°25'1 2.5
2018-Jun-18 02:00N 51°54' E 004°23'4 7.2
2018-Jun-18 01:30N 51°54' E 004°17'510.1
2018-Jun-18 01:00N 51°57' E 004°11'4 7.0
2018-Jun-18 00:30N 51°58' E 004°05'2 3.5
2018-Jun-18 00:00N 51°58' E 004°03'0 0.0
2018-Jun-17 23:30N 51°58' E 004°03'0 0.0
2018-Jun-17 23:00N 51°58' E 004°03'0 0.0
2018-Jun-17 22:30N 51°58' E 004°03'0 0.0
2018-Jun-17 22:00N 51°58' E 004°03'0 0.0
2018-Jun-17 21:30N 51°58' E 004°03'0 0.0
2018-Jun-17 21:00N 51°58' E 004°03'0 0.0
2018-Jun-17 20:30N 51°58' E 004°03'0 0.0
2018-Jun-17 20:00N 51°58' E 004°03'0 0.0
2018-Jun-17 19:30N 51°58' E 004°03'0 0.0
2018-Jun-17 19:00N 51°58' E 004°03'0 0.0
2018-Jun-17 18:30N 51°58' E 004°03'0 0.0
2018-Jun-17 18:00N 51°58' E 004°03'0 0.4
2018-Jun-17 17:30N 51°58' E 004°03'1 2.8
2018-Jun-17 17:00N 51°57' E 004°04'0 0.0
2018-Jun-17 16:30N 51°57' E 004°04'0 0.0
2018-Jun-17 16:00N 51°57' E 004°04'0 0.0
2018-Jun-17 15:30N 51°57' E 004°04'0 0.0
2018-Jun-17 15:00N 51°57' E 004°04'0 0.0
2018-Jun-17 14:30N 51°57' E 004°04'0 0.1
2018-Jun-17 14:01N 51°57' E 004°04'0 0.1
2018-Jun-17 13:30N 51°57' E 004°04'0 0.0
2018-Jun-17 12:59N 51°57' E 004°04'0 0.0
2018-Jun-17 12:29N 51°57' E 004°04'0 0.0
2018-Jun-17 11:59N 51°57' E 004°04'0 0.0
2018-Jun-17 11:29N 51°57' E 004°04'1 1.2
2018-Jun-17 11:00N 51°57' E 004°05'3 5.3
2018-Jun-17 10:30N 51°58' E 004°09'612.4
2018-Jun-17 10:00N 51°54' E 004°17'5 9.8
2018-Jun-17 09:30N 51°54' E 004°25'1 1.8
2018-Jun-17 08:59N 51°54' E 004°26'0 0.0
2018-Jun-17 08:28N 51°54' E 004°26'0 0.0
2018-Jun-17 07:58N 51°54' E 004°26'0 0.0
2018-Jun-17 07:29N 51°54' E 004°26'0 0.0
2018-Jun-17 06:58N 51°54' E 004°26'0 0.0
2018-Jun-17 06:28N 51°54' E 004°26'0 0.0
2018-Jun-17 05:58N 51°54' E 004°26'0 0.0
2018-Jun-17 05:28N 51°54' E 004°26'0 0.0
2018-Jun-17 04:56N 51°54' E 004°26'0 0.0
2018-Jun-17 04:28N 51°54' E 004°26'0 0.0
2018-Jun-17 03:59N 51°54' E 004°26'0 0.0
2018-Jun-17 03:28N 51°54' E 004°26'0 0.0
2018-Jun-17 02:59N 51°54' E 004°26'0 0.0
2018-Jun-17 02:29N 51°54' E 004°26'0 0.0
2018-Jun-17 01:56N 51°54' E 004°26'0 0.0
2018-Jun-17 01:29N 51°54' E 004°26'1 3.0
2018-Jun-17 01:00N 51°54' E 004°24'1 2.5
2018-Jun-17 00:28N 51°53' E 004°25'0 0.1
2018-Jun-16 23:59N 51°53' E 004°25'0 0.0
2018-Jun-16 23:29N 51°53' E 004°25'0 0.0
2018-Jun-16 22:58N 51°53' E 004°25'0 0.0
2018-Jun-16 22:29N 51°53' E 004°25'0 0.0
2018-Jun-16 21:59N 51°53' E 004°25'0 0.0
2018-Jun-16 21:29N 51°53' E 004°25'0 0.0
2018-Jun-16 20:56N 51°53' E 004°25'0 0.0
2018-Jun-16 20:28N 51°53' E 004°25'0 0.0
2018-Jun-16 19:58N 51°53' E 004°25'0 0.0
2018-Jun-16 19:28N 51°53' E 004°25'0 0.0
2018-Jun-16 19:00N 51°53' E 004°25'0 0.0
2018-Jun-16 18:30N 51°53' E 004°25'0 0.0
2018-Jun-16 17:58N 51°53' E 004°25'0 0.0
2018-Jun-16 17:28N 51°53' E 004°25'0 0.0
2018-Jun-16 16:58N 51°53' E 004°25'0 0.0
2018-Jun-16 16:28N 51°53' E 004°25'0 0.0
2018-Jun-16 15:58N 51°53' E 004°25'0 0.0
2018-Jun-16 15:28N 51°53' E 004°25'0 0.0
2018-Jun-16 14:58N 51°53' E 004°25'0 0.0
2018-Jun-16 14:30N 51°53' E 004°25'0 0.0
2018-Jun-16 13:57N 51°53' E 004°25'0 0.0
2018-Jun-16 13:28N 51°53' E 004°25'0 0.0
2018-Jun-16 12:58N 51°53' E 004°25'0 0.0
2018-Jun-16 12:30N 51°53' E 004°25'0 0.0
2018-Jun-16 11:58N 51°53' E 004°25'0 0.0
2018-Jun-16 11:27N 51°53' E 004°25'0 0.0
2018-Jun-16 10:58N 51°53' E 004°25'0 0.2
2018-Jun-16 10:28N 51°53' E 004°25'1 1.2
2018-Jun-16 10:00N 51°53' E 004°24'0 0.0
2018-Jun-16 09:30N 51°53' E 004°24'0 0.0
2018-Jun-16 09:00N 51°53' E 004°24'0 0.0
2018-Jun-16 08:29N 51°53' E 004°24'0 0.0
2018-Jun-16 07:59N 51°53' E 004°24'0 0.0
2018-Jun-16 07:29N 51°53' E 004°24'0 0.0
2018-Jun-16 07:00N 51°53' E 004°24'0 0.0
2018-Jun-16 06:30N 51°53' E 004°24'0 0.0
2018-Jun-16 06:00N 51°53' E 004°24'0 0.0
2018-Jun-16 05:00N 51°53' E 004°24'0 0.0
2018-Jun-16 04:30N 51°53' E 004°24'0 0.0
2018-Jun-16 03:59N 51°53' E 004°24'0 0.0
2018-Jun-16 03:26N 51°53' E 004°24'0 0.0
2018-Jun-16 03:01N 51°53' E 004°24'2 4.7
2018-Jun-16 02:31N 51°54' E 004°21'3 6.9
2018-Jun-16 02:00N 51°51' E 004°23'611.1
2018-Jun-16 01:31N 51°50' E 004°32'4 8.1
2018-Jun-16 01:00N 51°48' E 004°37'5 9.4
2018-Jun-16 00:31N 51°43' E 004°37'2 4.4
2018-Jun-16 00:01N 51°41' E 004°36'0 0.2
2018-Jun-15 23:30N 51°41' E 004°36'0 0.0
2018-Jun-15 23:01N 51°41' E 004°36'0 0.0
2018-Jun-15 22:30N 51°41' E 004°36'0 0.0
2018-Jun-15 22:01N 51°41' E 004°36'0 0.0
2018-Jun-15 21:30N 51°41' E 004°36'0 0.0
2018-Jun-15 21:01N 51°41' E 004°36'0 0.0
2018-Jun-15 20:31N 51°41' E 004°36'0 0.0
2018-Jun-15 20:00N 51°41' E 004°36'0 0.0
2018-Jun-15 19:30N 51°41' E 004°36'0 0.0
2018-Jun-15 19:00N 51°41' E 004°36'0 0.0
2018-Jun-15 18:30N 51°41' E 004°36'0 0.0
2018-Jun-15 18:00N 51°41' E 004°36'0 0.0
2018-Jun-15 17:30N 51°41' E 004°36'0 0.0
2018-Jun-15 17:00N 51°41' E 004°36'0 0.0
2018-Jun-15 16:30N 51°41' E 004°36'0 0.0
2018-Jun-15 16:00N 51°41' E 004°36'0 0.0
2018-Jun-15 15:31N 51°41' E 004°36'0 0.0
2018-Jun-15 15:01N 51°41' E 004°36'0 0.0
2018-Jun-15 14:30N 51°41' E 004°36'0 0.0
2018-Jun-15 14:00N 51°41' E 004°36'0 0.0
2018-Jun-15 13:30N 51°41' E 004°36'0 0.0
2018-Jun-15 13:00N 51°41' E 004°36'0 0.0
2018-Jun-15 12:30N 51°41' E 004°36'0 0.0
2018-Jun-15 12:00N 51°41' E 004°36'2 4.1
2018-Jun-15 11:31N 51°43' E 004°37'4 7.6
2018-Jun-15 11:00N 51°47' E 004°38'3 6.9
2018-Jun-15 10:31N 51°49' E 004°34'3 7.0
2018-Jun-15 10:01N 51°50' E 004°28'4 8.8
2018-Jun-15 09:30N 51°51' E 004°21'4 7.5
2018-Jun-15 09:01N 51°54' E 004°17'510.7
2018-Jun-15 08:30N 51°57' E 004°10'510.3
2018-Jun-15 08:01N 51°59' E 004°03'715.0
2018-Jun-15 07:30N 52°00' E 003°51'713.7
2018-Jun-15 07:00N 51°59' E 003°40'816.7
2018-Jun-15 06:30N 51°56' E 003°27'816.5
2018-Jun-15 06:00N 51°53' E 003°15'917.0
2018-Jun-15 05:29N 51°52' E 003°01'817.1
2018-Jun-15 05:00N 51°51' E 002°47'917.4
2018-Jun-15 04:30N 51°50' E 002°33'817.3
2018-Jun-15 04:01N 51°48' E 002°20'1019.1
2018-Jun-15 03:31N 51°42' E 002°08'1019.1
2018-Jun-15 03:01N 51°36' E 001°57'918.8
2018-Jun-15 02:31N 51°31' E 001°43'917.2
2018-Jun-15 02:00N 51°26' E 001°32'  

Dump ship's entire track history